Time;durP1;ratioP1;P1;durP2;ratioP2;P2;SDS_P1;SDS_P2;PMS_P1;PMS_P2;Temp;Humidity;BMP_temperature;BMP_pressure;BME280_temperature;BME280_humidity;BME280_pressure;Samples;Min_cycle;Max_cycle;Signal;HPM_P1;HPM_P2
2024/01/26 00:01:48;;;;;;;27.15;10.77;;;10.00;99.90;;;;;;5110159;28;20173;-55
2024/01/26 00:04:13;;;;;;;26.15;11.05;;;9.90;99.90;;;;;;5111422;28;20191;-55
2024/01/26 00:06:39;;;;;;;18.52;11.50;;;10.00;99.90;;;;;;5111457;28;20222;-55
2024/01/26 00:09:10;;;;;;;24.17;11.00;;;9.90;99.90;;;;;;5111385;28;20194;-55
2024/01/26 00:11:38;;;;;;;18.05;9.73;;;9.90;99.90;;;;;;5111237;28;20296;-55
2024/01/26 00:14:05;;;;;;;20.08;10.55;;;10.00;99.90;;;;;;5111240;28;20156;-55
2024/01/26 00:16:31;;;;;;;17.08;9.65;;;10.00;99.90;;;;;;5109969;28;20165;-55
2024/01/26 00:18:57;;;;;;;22.98;10.43;;;10.00;99.90;;;;;;5111666;28;20679;-55
2024/01/26 00:21:23;;;;;;;20.48;10.73;;;10.00;99.90;;;;;;5111065;28;20164;-55
2024/01/26 00:23:48;;;;;;;17.55;9.23;;;10.00;99.90;;;;;;5111069;28;20164;-56
2024/01/26 00:26:14;;;;;;;23.52;10.80;;;10.00;99.90;;;;;;5109836;28;20204;-56
2024/01/26 00:28:39;;;;;;;18.42;9.75;;;10.00;99.90;;;;;;5111147;28;20264;-55
2024/01/26 00:31:06;;;;;;;19.25;10.55;;;10.00;99.90;;;;;;5111047;27;20168;-55
2024/01/26 00:33:32;;;;;;;15.52;8.85;;;10.00;99.90;;;;;;5111051;28;20257;-55
2024/01/26 00:35:58;;;;;;;21.08;9.27;;;10.00;99.90;;;;;;5109758;28;20268;-55
2024/01/26 00:38:23;;;;;;;18.70;8.80;;;10.00;99.90;;;;;;5110873;28;20657;-55
2024/01/26 00:40:50;;;;;;;18.75;8.77;;;10.00;99.90;;;;;;5110859;28;20176;-55
2024/01/26 00:43:16;;;;;;;13.40;8.43;;;10.00;99.90;;;;;;5110969;28;20165;-55
2024/01/26 00:45:42;;;;;;;18.13;8.38;;;10.00;99.90;;;;;;5110556;28;20211;-55
2024/01/26 00:48:08;;;;;;;16.02;8.85;;;10.00;99.90;;;;;;5110912;28;20206;-56
2024/01/26 00:50:34;;;;;;;16.30;9.13;;;10.00;99.90;;;;;;5110588;28;20168;-56
2024/01/26 00:53:00;;;;;;;17.13;7.65;;;10.00;99.90;;;;;;5109227;28;20183;-56
2024/01/26 00:55:29;;;;;;;17.00;8.43;;;10.10;99.90;;;;;;5110689;28;20192;-56
2024/01/26 00:57:58;;;;;;;14.90;7.97;;;10.10;99.90;;;;;;5110640;28;20231;-56
2024/01/26 01:00:24;;;;;;;16.52;8.00;;;10.00;99.90;;;;;;5110996;28;20184;-56
2024/01/26 01:02:53;;;;;;;9.45;6.22;;;10.00;99.90;;;;;;5110380;28;20176;-56
2024/01/26 01:05:19;;;;;;;9.80;7.53;;;10.10;99.90;;;;;;5110384;28;20207;-56
2024/01/26 01:07:45;;;;;;;8.55;6.22;;;10.40;99.90;;;;;;5109940;28;20810;-56
2024/01/26 01:10:11;;;;;;;9.75;7.35;;;10.10;99.90;;;;;;5110166;28;20175;-56
2024/01/26 01:12:40;;;;;;;13.00;6.70;;;10.10;99.90;;;;;;5110179;28;20628;-56
2024/01/26 01:15:11;;;;;;;9.77;6.80;;;10.10;99.90;;;;;;5110116;28;20172;-55
2024/01/26 01:17:37;;;;;;;8.15;6.57;;;10.20;99.90;;;;;;5110143;28;20574;-56
2024/01/26 01:20:04;;;;;;;9.48;6.88;;;10.20;99.90;;;;;;5110199;28;20271;-56
2024/01/26 01:22:30;;;;;;;10.73;6.95;;;10.20;99.90;;;;;;5110389;28;20173;-56
2024/01/26 01:24:55;;;;;;;7.93;6.60;;;10.20;99.90;;;;;;5110391;28;20662;-56
2024/01/26 01:27:21;;;;;;;9.27;6.20;;;10.30;99.90;;;;;;5110201;28;20176;-56
2024/01/26 01:29:47;;;;;;;11.75;7.18;;;10.40;99.90;;;;;;5109925;28;20164;-56
2024/01/26 01:32:12;;;;;;;8.48;6.47;;;10.30;99.90;;;;;;5109941;28;20168;-56
2024/01/26 01:34:39;;;;;;;8.63;7.15;;;10.40;99.90;;;;;;5109852;28;20218;-56
2024/01/26 01:37:05;;;;;;;8.90;7.40;;;10.40;99.90;;;;;;5109753;28;20636;-56
2024/01/26 01:39:31;;;;;;;12.80;6.05;;;10.40;99.90;;;;;;5109874;28;20172;-56
2024/01/26 01:41:56;;;;;;;9.00;6.68;;;10.40;99.90;;;;;;5110516;28;20179;-56
2024/01/26 01:44:22;;;;;;;8.73;6.68;;;10.40;99.90;;;;;;5109789;28;20904;-56
2024/01/26 01:46:47;;;;;;;9.80;7.22;;;10.40;99.90;;;;;;5108435;28;20204;-56
2024/01/26 01:49:13;;;;;;;10.95;7.57;;;10.40;99.90;;;;;;5109986;28;20662;-56
2024/01/26 01:51:45;;;;;;;9.55;7.43;;;10.40;99.90;;;;;;5108588;28;20222;-56
2024/01/26 01:54:11;;;;;;;9.02;6.60;;;10.40;99.90;;;;;;5109767;28;20200;-56
2024/01/26 01:56:42;;;;;;;10.98;7.50;;;10.40;99.90;;;;;;5109555;28;20261;-56
2024/01/26 01:59:08;;;;;;;9.32;6.85;;;10.30;99.90;;;;;;5109810;28;20663;-56
2024/01/26 02:01:33;;;;;;;8.85;6.80;;;10.30;99.90;;;;;;5109788;28;20173;-56
2024/01/26 02:04:02;;;;;;;8.60;7.20;;;10.30;99.90;;;;;;5109501;28;20194;-56
2024/01/26 02:06:28;;;;;;;10.63;7.78;;;10.30;99.90;;;;;;5110385;28;20242;-56
2024/01/26 02:08:53;;;;;;;11.60;6.97;;;10.40;99.90;;;;;;5112516;28;20196;-55
2024/01/26 02:11:19;;;;;;;7.47;6.68;;;10.40;99.90;;;;;;5113586;28;20635;-56
2024/01/26 02:13:44;;;;;;;11.23;7.72;;;10.30;99.90;;;;;;5112357;28;20176;-56
2024/01/26 02:16:10;;;;;;;9.95;7.95;;;10.30;99.90;;;;;;5113531;28;20217;-56
2024/01/26 02:18:36;;;;;;;8.88;7.18;;;10.30;99.90;;;;;;5113595;28;20161;-56
2024/01/26 02:21:02;;;;;;;10.15;7.60;;;10.30;99.90;;;;;;5113586;28;20533;-56
2024/01/26 02:23:27;;;;;;;9.15;6.95;;;10.30;99.90;;;;;;5114002;28;20513;-56
2024/01/26 02:25:53;;;;;;;9.93;7.47;;;10.30;99.90;;;;;;5113189;28;20281;-56
2024/01/26 02:28:19;;;;;;;9.05;7.28;;;10.40;99.90;;;;;;5113375;28;20165;-56
2024/01/26 02:30:44;;;;;;;8.48;6.15;;;10.40;99.90;;;;;;5113251;27;20176;-56
2024/01/26 02:33:10;;;;;;;7.88;5.75;;;10.30;99.90;;;;;;5113082;28;20674;-56
2024/01/26 02:35:35;;;;;;;8.40;6.55;;;10.30;99.90;;;;;;5113299;28;20172;-56
2024/01/26 02:38:01;;;;;;;8.18;6.38;;;10.40;99.90;;;;;;5113182;28;20793;-56
2024/01/26 02:40:29;;;;;;;9.13;6.28;;;10.40;99.90;;;;;;5113644;28;20650;-56
2024/01/26 02:42:54;;;;;;;7.20;5.80;;;10.30;99.90;;;;;;5113754;28;20173;-56
2024/01/26 02:45:20;;;;;;;8.05;5.38;;;10.30;99.90;;;;;;5112792;28;20671;-56
2024/01/26 02:47:46;;;;;;;8.57;6.38;;;10.30;99.90;;;;;;5112991;28;20689;-55
2024/01/26 02:50:11;;;;;;;7.60;5.03;;;10.40;99.90;;;;;;5112929;28;20177;-56
2024/01/26 02:52:37;;;;;;;6.95;4.78;;;10.40;99.90;;;;;;5112940;28;20173;-56
2024/01/26 02:55:02;;;;;;;7.13;5.18;;;10.40;99.90;;;;;;5112765;28;20175;-56
2024/01/26 02:57:28;;;;;;;9.02;5.68;;;10.40;99.90;;;;;;5113017;28;20220;-55
2024/01/26 02:59:54;;;;;;;5.93;5.32;;;11.20;99.90;;;;;;5113278;28;20179;-56
2024/01/26 03:02:19;;;;;;;6.72;5.47;;;10.40;99.90;;;;;;5112691;28;20171;-56
2024/01/26 03:04:45;;;;;;;8.07;5.40;;;10.40;99.90;;;;;;5112945;28;20663;-56
2024/01/26 03:07:11;;;;;;;8.05;5.63;;;10.40;99.90;;;;;;5111153;28;20924;-56
2024/01/26 03:09:37;;;;;;;8.65;5.45;;;10.30;99.90;;;;;;5112591;28;20165;-56
2024/01/26 03:12:03;;;;;;;7.00;5.72;;;10.30;99.90;;;;;;5112522;28;20171;-53
2024/01/26 03:14:28;;;;;;;6.93;4.80;;;10.40;99.90;;;;;;5113277;28;20176;-53
2024/01/26 03:16:54;;;;;;;8.18;5.05;;;10.40;99.90;;;;;;5112885;27;20168;-56
2024/01/26 03:19:20;;;;;;;7.63;4.90;;;10.40;99.90;;;;;;5112221;28;20659;-56
2024/01/26 03:21:46;;;;;;;5.55;4.60;;;10.30;99.90;;;;;;5112320;28;20160;-56
2024/01/26 03:24:12;;;;;;;4.55;3.83;;;10.30;99.90;;;;;;5112687;28;20248;-54
2024/01/26 03:26:38;;;;;;;6.65;4.20;;;10.30;99.90;;;;;;5112314;28;20273;-56
2024/01/26 03:29:05;;;;;;;5.63;4.15;;;10.40;99.90;;;;;;5112499;28;20617;-56
2024/01/26 03:31:31;;;;;;;6.13;3.70;;;10.30;99.90;;;;;;5112286;28;20200;-54
2024/01/26 03:33:57;;;;;;;5.45;3.70;;;10.40;99.90;;;;;;5111438;28;20659;-55
2024/01/26 03:36:22;;;;;;;3.72;3.33;;;10.40;99.90;;;;;;5112125;28;20502;-56
2024/01/26 03:38:48;;;;;;;3.38;2.85;;;10.40;99.90;;;;;;5112131;28;20176;-54
2024/01/26 03:41:13;;;;;;;3.45;3.15;;;10.50;99.90;;;;;;5112262;28;20207;-56
2024/01/26 03:43:39;;;;;;;3.17;2.88;;;10.50;99.90;;;;;;5112109;28;20164;-56
2024/01/26 03:46:08;;;;;;;4.55;2.72;;;10.50;99.90;;;;;;5111800;28;20200;-56
2024/01/26 03:48:34;;;;;;;3.13;2.60;;;10.50;99.90;;;;;;5111892;28;20171;-56
2024/01/26 03:50:59;;;;;;;2.75;2.45;;;10.50;99.90;;;;;;5112049;28;20680;-55
2024/01/26 03:53:25;;;;;;;5.80;2.67;;;10.50;99.90;;;;;;5111948;28;20230;-56
2024/01/26 03:55:53;;;;;;;3.40;2.60;;;10.50;99.90;;;;;;5111674;28;20169;-56
2024/01/26 03:58:19;;;;;;;3.15;2.20;;;10.50;99.90;;;;;;5112010;28;20215;-56
2024/01/26 04:00:45;;;;;;;2.70;2.50;;;10.40;99.90;;;;;;5111657;28;20169;-56
2024/01/26 04:03:10;;;;;;;3.83;2.58;;;10.50;99.90;;;;;;5111671;28;20624;-56
2024/01/26 04:05:36;;;;;;;3.92;2.85;;;10.50;99.90;;;;;;5111671;28;20193;-56
2024/01/26 04:08:02;;;;;;;5.28;2.50;;;10.40;99.90;;;;;;5111267;28;20188;-56
2024/01/26 04:10:27;;;;;;;4.10;2.33;;;10.50;99.90;;;;;;5111933;28;21002;-56
2024/01/26 04:12:53;;;;;;;4.55;2.40;;;10.40;99.90;;;;;;5111332;28;20535;-56
2024/01/26 04:15:18;;;;;;;3.30;2.53;;;10.50;99.90;;;;;;5111348;28;20179;-55
2024/01/26 04:17:44;;;;;;;3.47;2.58;;;10.40;99.90;;;;;;5111632;28;20171;-55
2024/01/26 04:20:10;;;;;;;5.20;2.70;;;10.40;99.90;;;;;;5109977;28;20306;-55
2024/01/26 04:22:36;;;;;;;4.47;1.88;;;10.40;99.90;;;;;;5111320;28;20214;-55
2024/01/26 04:25:01;;;;;;;4.25;2.40;;;10.50;99.90;;;;;;5111174;28;20631;-55
2024/01/26 04:27:27;;;;;;;6.00;2.00;;;10.40;99.90;;;;;;5111790;28;20173;-56
2024/01/26 04:29:52;;;;;;;2.95;2.10;;;10.50;99.90;;;;;;5111081;28;20168;-56
2024/01/26 04:32:18;;;;;;;5.75;2.00;;;10.40;99.90;;;;;;5110526;28;20514;-56
2024/01/26 04:34:45;;;;;;;5.15;2.20;;;10.50;99.90;;;;;;5110915;28;20164;-56
2024/01/26 04:37:10;;;;;;;2.38;2.10;;;10.40;99.90;;;;;;5111156;28;20160;-56
2024/01/26 04:39:36;;;;;;;4.63;1.90;;;10.40;99.90;;;;;;5111093;28;20532;-55
2024/01/26 04:42:02;;;;;;;3.20;2.00;;;10.40;99.90;;;;;;5110926;28;20579;-55
2024/01/26 04:44:28;;;;;;;5.85;2.25;;;10.40;99.90;;;;;;5111457;28;20176;-55
2024/01/26 04:46:55;;;;;;;5.65;2.33;;;10.40;99.90;;;;;;5110579;28;20249;-55
2024/01/26 04:49:21;;;;;;;5.25;2.20;;;10.40;99.90;;;;;;5110609;28;20636;-55
2024/01/26 04:51:47;;;;;;;4.35;2.10;;;10.40;99.90;;;;;;5110621;28;20192;-55
2024/01/26 04:54:12;;;;;;;6.47;2.38;;;10.40;99.90;;;;;;5110487;28;20608;-55
2024/01/26 04:56:38;;;;;;;3.47;2.25;;;10.40;99.90;;;;;;5110383;28;20274;-55
2024/01/26 04:59:04;;;;;;;7.95;1.90;;;10.40;99.90;;;;;;5110456;28;20161;-55
2024/01/26 05:01:29;;;;;;;7.68;1.80;;;10.40;99.90;;;;;;5110567;28;20164;-55
2024/01/26 05:03:55;;;;;;;6.80;2.20;;;10.40;99.90;;;;;;5110775;28;20179;-55
2024/01/26 05:06:21;;;;;;;3.25;1.80;;;10.50;99.90;;;;;;5110150;28;20243;-55
2024/01/26 05:08:47;;;;;;;4.88;2.55;;;10.50;99.90;;;;;;5110414;28;20574;-55
2024/01/26 05:11:12;;;;;;;3.58;2.22;;;10.50;99.90;;;;;;5110510;28;20181;-55
2024/01/26 05:13:38;;;;;;;6.63;2.67;;;10.50;99.90;;;;;;5110270;28;20164;-55
2024/01/26 05:16:04;;;;;;;12.63;3.35;;;10.50;99.90;;;;;;5109972;28;20161;-55
2024/01/26 05:18:29;;;;;;;13.77;4.93;;;10.50;99.90;;;;;;5110226;28;20252;-56
2024/01/26 05:20:55;;;;;;;12.43;5.88;;;10.50;99.90;;;;;;5110835;28;20680;-56
2024/01/26 05:23:21;;;;;;;10.10;4.55;;;10.50;99.90;;;;;;5110071;28;20176;-56
2024/01/26 05:25:47;;;;;;;7.30;3.35;;;10.50;99.90;;;;;;5109998;28;20200;-55
2024/01/26 05:28:13;;;;;;;8.75;3.45;;;10.40;99.90;;;;;;5109822;28;20184;-55
2024/01/26 05:30:38;;;;;;;5.65;2.72;;;10.40;99.90;;;;;;5110333;28;20253;-55
2024/01/26 05:33:05;;;;;;;5.97;3.15;;;10.50;99.90;;;;;;5108845;28;20200;-55
2024/01/26 05:35:31;;;;;;;7.03;3.28;;;10.40;99.90;;;;;;5108698;28;20172;-55
2024/01/26 05:37:56;;;;;;;5.22;2.63;;;10.40;99.90;;;;;;5110369;28;20620;-55
2024/01/26 05:40:22;;;;;;;6.18;2.60;;;10.50;99.90;;;;;;5109919;28;20537;-56
2024/01/26 05:42:47;;;;;;;4.75;2.10;;;10.50;99.90;;;;;;5109006;28;20631;-55
2024/01/26 05:45:15;;;;;;;6.30;2.10;;;10.50;99.90;;;;;;5109639;28;20217;-56
2024/01/26 05:47:41;;;;;;;2.92;1.75;;;10.50;99.90;;;;;;5109899;28;20260;-55
2024/01/26 05:50:07;;;;;;;5.03;2.20;;;10.60;99.90;;;;;;5108682;28;20251;-56
2024/01/26 05:52:32;;;;;;;2.60;1.58;;;10.60;99.90;;;;;;5109748;28;20247;-56
2024/01/26 05:54:58;;;;;;;1.58;1.40;;;10.50;99.90;;;;;;5110270;28;20171;-55
2024/01/26 05:57:23;;;;;;;2.63;1.38;;;10.50;99.90;;;;;;5109479;28;20568;-55
2024/01/26 05:59:49;;;;;;;2.10;1.52;;;10.50;99.90;;;;;;5109830;28;20169;-55
2024/01/26 06:02:15;;;;;;;2.47;1.55;;;10.50;99.90;;;;;;5109672;28;20179;-55
2024/01/26 06:04:40;;;;;;;2.28;1.58;;;10.40;99.90;;;;;;5109692;28;20169;-55
2024/01/26 06:07:06;;;;;;;1.90;1.40;;;10.30;99.90;;;;;;5109471;28;20599;-55
2024/01/26 06:09:32;;;;;;;2.58;1.60;;;10.30;99.90;;;;;;5109757;28;20183;-55
2024/01/26 06:11:58;;;;;;;1.92;1.30;;;10.20;99.90;;;;;;5110235;28;20288;-56
2024/01/26 06:14:23;;;;;;;2.15;1.60;;;10.20;99.90;;;;;;5109989;28;20165;-55
2024/01/26 06:16:49;;;;;;;1.58;1.40;;;10.10;99.90;;;;;;5108292;28;20515;-55
2024/01/26 06:19:15;;;;;;;14.82;7.72;;;10.20;99.90;;;;;;5109367;28;20169;-56
2024/01/26 06:21:41;;;;;;;3.13;2.03;;;10.10;99.90;;;;;;5109416;28;20175;-56
2024/01/26 06:24:06;;;;;;;4.30;2.55;;;10.20;99.90;;;;;;5109383;28;20169;-56
2024/01/26 06:26:32;;;;;;;2.47;1.63;;;10.20;99.90;;;;;;5109168;28;20326;-56
2024/01/26 06:28:57;;;;;;;3.33;2.45;;;10.20;99.90;;;;;;5109783;28;20244;-56
2024/01/26 06:31:26;;;;;;;2.88;1.65;;;10.20;99.90;;;;;;5110018;28;20169;-55
2024/01/26 06:33:53;;;;;;;3.90;2.30;;;10.20;99.90;;;;;;5109352;28;20168;-56
2024/01/26 06:36:18;;;;;;;9.77;5.95;;;10.20;99.90;;;;;;5107971;28;20593;-56
2024/01/26 06:38:44;;;;;;;2.72;2.10;;;10.20;99.90;;;;;;5109014;28;20772;-56
2024/01/26 06:41:09;;;;;;;2.85;2.03;;;10.30;99.90;;;;;;5109157;28;20165;-56
2024/01/26 06:43:35;;;;;;;6.53;3.45;;;10.20;99.90;;;;;;5109206;28;20228;-56
2024/01/26 06:46:04;;;;;;;3.88;2.35;;;10.20;99.90;;;;;;5108833;28;20283;-56
2024/01/26 06:48:29;;;;;;;5.28;3.53;;;13.00;99.90;;;;;;5108209;28;20760;-56
2024/01/26 06:50:55;;;;;;;3.03;1.83;;;10.30;99.90;;;;;;5110100;28;20177;-56
2024/01/26 06:53:21;;;;;;;2.35;1.95;;;10.30;99.90;;;;;;5107500;28;20542;-56
2024/01/26 06:55:47;;;;;;;7.35;4.75;;;10.20;99.90;;;;;;5112741;28;20203;-56
2024/01/26 06:58:13;;;;;;;6.70;2.00;;;10.30;99.90;;;;;;5112610;28;20214;-57
2024/01/26 07:00:38;;;;;;;4.72;3.55;;;10.30;99.90;;;;;;5112962;28;20173;-56
2024/01/26 07:03:04;;;;;;;2.78;1.70;;;10.20;99.90;;;;;;5112729;28;20671;-55
2024/01/26 07:05:29;;;;;;;2.10;1.67;;;10.30;99.90;;;;;;5112589;28;20197;-55
2024/01/26 07:07:56;;;;;;;3.28;2.22;;;10.30;99.90;;;;;;5113112;28;20201;-56
2024/01/26 07:10:24;;;;;;;7.00;2.30;;;10.30;99.90;;;;;;5112342;28;20164;-56
2024/01/26 07:12:50;;;;;;;5.93;2.33;;;10.30;99.90;;;;;;5112555;28;20172;-55
2024/01/26 07:15:15;;;;;;;5.55;2.85;;;10.30;99.90;;;;;;5112371;28;20169;-55
2024/01/26 07:17:41;;;;;;;6.13;3.10;;;10.40;99.90;;;;;;5112406;28;20221;-55
2024/01/26 07:20:07;;;;;;;3.10;2.35;;;10.40;99.90;;;;;;5111170;28;20180;-55
2024/01/26 07:22:32;;;;;;;4.75;3.35;;;10.40;99.90;;;;;;5111193;28;20161;-55
2024/01/26 07:24:58;;;;;;;12.13;4.60;;;10.50;99.90;;;;;;5113074;28;20172;-56
2024/01/26 07:27:23;;;;;;;8.73;4.47;;;10.50;99.90;;;;;;5113102;28;20218;-55
2024/01/26 07:29:49;;;;;;;10.30;5.05;;;10.40;99.90;;;;;;5112330;28;20654;-55
2024/01/26 07:32:15;;;;;;;13.32;4.55;;;10.40;99.90;;;;;;5112254;28;20257;-56
2024/01/26 07:34:40;;;;;;;10.90;4.57;;;10.50;99.90;;;;;;5111959;28;20537;-55
2024/01/26 07:37:07;;;;;;;17.17;7.10;;;10.50;99.90;;;;;;5110709;28;20190;-55
2024/01/26 07:39:36;;;;;;;15.80;5.05;;;10.50;99.90;;;;;;5112339;28;20237;-56
2024/01/26 07:42:01;;;;;;;16.83;5.90;;;11.00;99.90;;;;;;5111957;28;20289;-55
2024/01/26 07:44:27;;;;;;;13.48;5.95;;;10.60;99.90;;;;;;5112567;28;20651;-55
2024/01/26 07:46:53;;;;;;;17.80;5.63;;;10.60;99.90;;;;;;5111729;28;20216;-55
2024/01/26 07:49:18;;;;;;;10.25;5.05;;;10.60;99.90;;;;;;5111799;28;20256;-55
2024/01/26 07:51:44;;;;;;;6.05;3.40;;;10.50;99.90;;;;;;5111714;28;20165;-55
2024/01/26 07:54:09;;;;;;;5.75;2.70;;;10.60;99.90;;;;;;5111698;28;20644;-55
2024/01/26 07:56:35;;;;;;;5.45;3.20;;;10.60;99.90;;;;;;5111861;28;20236;-56
2024/01/26 07:59:00;;;;;;;8.90;2.70;;;10.50;99.90;;;;;;5111622;28;20531;-56
2024/01/26 08:01:26;;;;;;;6.93;2.00;;;10.50;99.90;;;;;;5112058;28;20189;-55
2024/01/26 08:03:52;;;;;;;4.40;1.92;;;10.60;99.90;;;;;;5111665;28;20177;-55
2024/01/26 08:06:17;;;;;;;3.97;2.17;;;10.70;99.90;;;;;;5110576;28;21200;-56
2024/01/26 08:08:43;;;;;;;6.10;2.13;;;10.60;99.90;;;;;;5111953;28;20591;-56
2024/01/26 08:11:09;;;;;;;2.35;1.50;;;10.70;99.90;;;;;;5111431;28;20667;-47
2024/01/26 08:13:34;;;;;;;5.60;1.75;;;10.80;99.90;;;;;;5111235;28;20196;-54
2024/01/26 08:16:00;;;;;;;1.75;1.33;;;10.90;99.90;;;;;;5111339;28;20253;-57
2024/01/26 08:18:25;;;;;;;4.03;1.80;;;11.00;99.90;;;;;;5111882;28;20168;-56
2024/01/26 08:20:51;;;;;;;2.80;1.67;;;11.00;99.90;;;;;;5111550;28;20661;-54
2024/01/26 08:23:16;;;;;;;3.05;1.85;;;11.00;99.90;;;;;;5111235;28;20160;-54
2024/01/26 08:25:42;;;;;;;7.60;1.95;;;11.00;99.90;;;;;;5111016;28;20195;-56
2024/01/26 08:28:08;;;;;;;5.85;1.73;;;10.90;99.90;;;;;;5110987;28;20535;-52
2024/01/26 08:30:35;;;;;;;3.97;1.75;;;11.00;99.90;;;;;;5110969;28;20172;-54
2024/01/26 08:33:00;;;;;;;5.00;1.90;;;11.00;99.90;;;;;;5111218;28;20169;-54
2024/01/26 08:35:26;;;;;;;3.78;1.63;;;11.10;99.90;;;;;;5111658;28;20194;-55
2024/01/26 08:37:52;;;;;;;2.25;1.50;;;11.00;99.90;;;;;;5110999;28;20179;-51
2024/01/26 08:40:17;;;;;;;2.65;1.45;;;11.00;99.90;;;;;;5110699;28;20175;-50
2024/01/26 08:42:47;;;;;;;2.40;1.10;;;11.10;99.90;;;;;;5111134;28;20168;-53
2024/01/26 08:45:12;;;;;;;1.85;1.30;;;11.10;99.90;;;;;;5110450;28;20760;-57
2024/01/26 08:47:38;;;;;;;3.08;1.50;;;11.10;99.90;;;;;;5111105;28;20181;-54
2024/01/26 08:50:05;;;;;;;1.77;1.23;;;11.10;99.90;;;;;;5110880;28;20169;-54
2024/01/26 08:52:30;;;;;;;2.17;1.60;;;11.10;99.90;;;;;;5110543;28;20694;-57
2024/01/26 08:54:56;;;;;;;3.30;1.55;;;11.20;99.90;;;;;;5111100;28;20169;-58
2024/01/26 08:57:22;;;;;;;1.13;0.90;;;11.20;99.90;;;;;;5110326;28;20743;-54
2024/01/26 08:59:47;;;;;;;1.42;1.00;;;11.30;99.90;;;;;;5110324;28;20656;-55
2024/01/26 09:02:13;;;;;;;1.30;1.20;;;11.30;99.90;;;;;;5110249;28;20172;-56
2024/01/26 09:04:38;;;;;;;1.17;1.08;;;11.30;99.90;;;;;;5110349;28;20208;-56
2024/01/26 09:07:04;;;;;;;1.33;0.95;;;11.30;99.90;;;;;;5110302;28;20242;-56
2024/01/26 09:09:30;;;;;;;2.22;1.20;;;11.40;99.90;;;;;;5110318;28;20651;-58
2024/01/26 09:11:55;;;;;;;2.63;1.30;;;11.40;99.90;;;;;;5110922;28;20190;-55
2024/01/26 09:14:21;;;;;;;2.92;1.20;;;11.40;99.90;;;;;;5110224;28;20240;-57
2024/01/26 09:16:51;;;;;;;1.75;1.30;;;11.40;99.90;;;;;;5110652;28;20172;-57
2024/01/26 09:19:17;;;;;;;3.65;1.08;;;11.40;99.90;;;;;;5109028;28;20165;-55
2024/01/26 09:21:43;;;;;;;1.92;0.90;;;11.40;99.90;;;;;;5110263;28;20225;-56
2024/01/26 09:24:09;;;;;;;1.92;1.10;;;11.40;99.90;;;;;;5110340;28;20160;-56
2024/01/26 09:26:34;;;;;;;2.63;1.05;;;11.60;99.90;;;;;;5109826;28;20199;-56
2024/01/26 09:29:00;;;;;;;3.13;1.40;;;11.40;99.90;;;;;;5109222;28;20683;-55
2024/01/26 09:31:26;;;;;;;1.35;1.25;;;11.50;99.90;;;;;;5110636;28;20165;-55
2024/01/26 09:33:51;;;;;;;1.45;1.35;;;11.50;99.90;;;;;;5109913;28;20222;-55
2024/01/26 09:36:17;;;;;;;1.80;1.38;;;11.40;99.90;;;;;;5109801;28;20251;-57
2024/01/26 09:38:43;;;;;;;1.80;1.40;;;11.40;99.90;;;;;;5110019;28;20235;-57
2024/01/26 09:41:08;;;;;;;4.40;1.63;;;11.50;99.90;;;;;;5110203;28;20615;-58
2024/01/26 09:43:34;;;;;;;1.90;1.38;;;11.40;99.90;;;;;;5110212;28;20183;-57
2024/01/26 09:46:00;;;;;;;1.55;1.40;;;11.50;99.90;;;;;;5110071;28;20679;-57
2024/01/26 09:48:26;;;;;;;1.23;1.13;;;11.50;99.90;;;;;;5110610;28;20175;-57
2024/01/26 09:50:52;;;;;;;2.03;1.23;;;11.50;99.90;;;;;;5110049;28;20534;-55
2024/01/26 09:53:22;;;;;;;2.45;1.75;;;11.50;99.90;;;;;;5110430;28;20168;-56
2024/01/26 09:55:47;;;;;;;1.70;1.60;;;11.50;99.90;;;;;;5110047;28;20256;-56
2024/01/26 09:58:14;;;;;;;1.50;1.40;;;11.50;99.90;;;;;;5109967;28;20305;-56
2024/01/26 10:00:42;;;;;;;3.13;1.50;;;11.50;99.90;;;;;;5109979;28;20165;-55
2024/01/26 10:03:08;;;;;;;1.65;1.35;;;11.50;99.90;;;;;;5109892;28;20644;-56
2024/01/26 10:05:34;;;;;;;1.73;1.58;;;11.50;99.90;;;;;;5110289;28;20204;-56
2024/01/26 10:07:59;;;;;;;1.70;1.35;;;11.60;99.90;;;;;;5109742;28;20581;-55
2024/01/26 10:10:25;;;;;;;4.88;1.98;;;11.50;99.90;;;;;;5110185;28;20704;-56
2024/01/26 10:12:51;;;;;;;2.40;2.00;;;11.50;99.90;;;;;;5109893;28;20309;-56
2024/01/26 10:15:18;;;;;;;1.33;1.23;;;11.50;99.90;;;;;;5110025;28;20778;-57
2024/01/26 10:17:44;;;;;;;2.17;1.55;;;11.50;99.90;;;;;;5109698;28;20172;-55
2024/01/26 10:20:14;;;;;;;2.67;1.70;;;11.50;99.90;;;;;;5109700;28;20164;-57
2024/01/26 10:22:41;;;;;;;1.92;1.45;;;11.60;99.90;;;;;;5109458;28;20199;-56
2024/01/26 10:25:07;;;;;;;2.35;1.63;;;11.50;99.90;;;;;;5108135;28;20233;-55
2024/01/26 10:27:34;;;;;;;2.47;2.17;;;11.50;99.90;;;;;;5109204;28;20245;-56
2024/01/26 10:30:00;;;;;;;1.95;1.77;;;11.60;99.90;;;;;;5110750;28;20164;-55
2024/01/26 10:32:28;;;;;;;2.97;2.20;;;11.60;99.90;;;;;;5113740;28;20165;-55
2024/01/26 10:35:05;;;;;;;2.45;1.85;;;11.60;99.90;;;;;;5113903;28;20320;-54
2024/01/26 10:37:34;;;;;;;2.60;1.98;;;11.70;99.90;;;;;;5113109;28;20168;-55
2024/01/26 10:40:02;;;;;;;2.85;2.03;;;11.70;99.90;;;;;;5112911;28;20168;-54
2024/01/26 10:42:32;;;;;;;2.30;2.10;;;11.70;99.90;;;;;;5113194;27;20632;-55
2024/01/26 10:45:00;;;;;;;5.18;2.53;;;11.70;99.90;;;;;;5112991;28;20183;-57
2024/01/26 10:47:27;;;;;;;3.63;2.55;;;11.70;99.90;;;;;;5113643;28;20492;-56
2024/01/26 10:50:05;;;;;;;2.35;1.75;;;9.90;99.90;;;;;;5113379;28;20167;-57
2024/01/26 10:52:35;;;;;;;3.60;1.95;;;11.70;99.90;;;;;;5112904;28;20161;-57
2024/01/26 10:55:02;;;;;;;4.40;2.60;;;11.70;99.90;;;;;;5113041;28;20163;-56
2024/01/26 10:57:28;;;;;;;5.57;2.42;;;11.70;99.90;;;;;;5113097;28;20244;-55
2024/01/26 10:59:54;;;;;;;3.17;2.08;;;11.60;99.90;;;;;;5113626;28;20654;-57
2024/01/26 11:02:30;;;;;;;4.55;1.50;;;11.40;99.90;;;;;;5112970;28;20171;-57
2024/01/26 11:04:58;;;;;;;2.17;1.30;;;11.40;99.90;;;;;;5113627;27;20198;-57
2024/01/26 11:07:25;;;;;;;1.77;1.33;;;11.30;99.90;;;;;;5113417;28;20249;-57
2024/01/26 11:09:51;;;;;;;3.75;1.38;;;11.20;99.90;;;;;;5113018;28;20367;-55
2024/01/26 11:12:26;;;;;;;2.70;1.20;;;11.10;99.90;;;;;;5112726;28;20229;-56
2024/01/26 11:15:15;;;;;;;2.08;1.33;;;11.00;99.90;;;;;;5113581;28;20176;-55
2024/01/26 11:17:54;;;;;;;2.38;1.02;;;10.90;99.90;;;;;;5112903;28;20165;-56
2024/01/26 11:20:25;;;;;;;2.35;1.00;;;10.90;99.90;;;;;;5112770;28;20259;-55
2024/01/26 11:23:11;;;;;;;2.38;0.77;;;10.80;99.90;;;;;;5111176;28;20172;-56
2024/01/26 11:25:40;;;;;;;4.75;1.20;;;10.90;99.90;;;;;;5112429;28;20549;-55
2024/01/26 11:28:06;;;;;;;4.30;1.35;;;10.90;99.90;;;;;;5112296;28;20172;-56
2024/01/26 11:30:32;;;;;;;1.63;0.90;;;10.90;99.90;;;;;;5111120;28;20395;-54
2024/01/26 11:32:58;;;;;;;4.10;1.23;;;10.80;99.90;;;;;;5112332;28;20247;-56
2024/01/26 11:35:25;;;;;;;5.28;1.70;;;10.80;99.90;;;;;;5112872;27;20169;-55
2024/01/26 11:37:52;;;;;;;4.78;1.23;;;10.80;99.90;;;;;;5112024;27;20529;-55
2024/01/26 11:40:20;;;;;;;2.17;0.88;;;10.90;99.90;;;;;;5112306;28;20881;-56
2024/01/26 11:42:48;;;;;;;3.53;1.17;;;10.90;99.90;;;;;;5112182;28;20164;-55
2024/01/26 11:45:25;;;;;;;2.75;1.38;;;11.00;99.90;;;;;;5112027;28;20169;-56
2024/01/26 11:47:50;;;;;;;8.07;1.95;;;11.00;99.90;;;;;;5111865;28;20630;-55
2024/01/26 11:50:16;;;;;;;7.85;1.55;;;11.00;99.90;;;;;;5112075;28;20188;-56
2024/01/26 11:52:41;;;;;;;5.57;1.25;;;10.90;99.90;;;;;;5112065;28;20636;-56
2024/01/26 11:55:07;;;;;;;3.88;1.50;;;10.90;99.90;;;;;;5112243;28;20172;-55
2024/01/26 11:57:33;;;;;;;3.60;1.50;;;10.80;99.90;;;;;;5112010;28;20224;-54
2024/01/26 11:59:59;;;;;;;4.45;1.38;;;10.80;99.90;;;;;;5112069;28;20165;-55
2024/01/26 12:02:26;;;;;;;5.53;1.42;;;10.90;99.90;;;;;;5112236;28;20713;-54
2024/01/26 12:04:51;;;;;;;6.57;1.83;;;10.80;99.90;;;;;;5109370;28;20423;-56
2024/01/26 12:07:17;;;;;;;2.28;1.02;;;10.80;99.90;;;;;;5111394;28;20288;-55
2024/01/26 12:09:43;;;;;;;4.43;1.50;;;10.70;99.90;;;;;;5111442;28;20620;-55
2024/01/26 12:12:10;;;;;;;7.93;1.95;;;10.60;99.90;;;;;;5111378;28;20198;-55
2024/01/26 12:14:36;;;;;;;6.30;1.98;;;10.50;99.90;;;;;;5111804;28;20172;-56
2024/01/26 12:17:02;;;;;;;3.33;1.23;;;10.50;99.90;;;;;;5111614;28;20169;-55
2024/01/26 12:19:27;;;;;;;4.70;1.00;;;10.40;99.90;;;;;;5111781;28;20189;-56
2024/01/26 12:21:53;;;;;;;16.40;1.48;;;10.30;99.90;;;;;;5111690;28;20160;-56
2024/01/26 12:24:18;;;;;;;2.30;1.20;;;10.40;99.90;;;;;;5111226;28;20636;-55
2024/01/26 12:26:45;;;;;;;2.65;1.20;;;10.50;99.90;;;;;;5111085;28;20223;-58
2024/01/26 12:29:10;;;;;;;5.82;1.40;;;10.50;99.90;;;;;;5111714;28;20168;-58
2024/01/26 12:31:36;;;;;;;5.50;1.40;;;10.50;99.90;;;;;;5111194;28;20169;-58
2024/01/26 12:34:02;;;;;;;4.43;1.15;;;10.50;99.90;;;;;;5110983;28;20165;-58
2024/01/26 12:36:31;;;;;;;4.03;1.63;;;10.50;99.90;;;;;;5111050;28;20240;-58
2024/01/26 12:38:58;;;;;;;3.97;1.02;;;10.60;99.90;;;;;;5111513;28;20221;-56
2024/01/26 12:41:25;;;;;;;4.88;1.30;;;10.60;99.90;;;;;;5111695;28;20796;-57